sensor_id;sensor_type;location;lat;lon;timestamp;temperature;humidity
15426;DHT22;7812;50.072;7.036;2022-08-14T00:01:29;16.10;99.90
15426;DHT22;7812;50.072;7.036;2022-08-14T00:04:04;16.10;99.90
15426;DHT22;7812;50.072;7.036;2022-08-14T00:06:30;16.10;99.90
15426;DHT22;7812;50.072;7.036;2022-08-14T00:08:56;16.00;99.90
15426;DHT22;7812;50.072;7.036;2022-08-14T00:11:22;15.80;99.90
15426;DHT22;7812;50.072;7.036;2022-08-14T00:13:47;15.80;99.90
15426;DHT22;7812;50.072;7.036;2022-08-14T00:16:13;15.80;99.90
15426;DHT22;7812;50.072;7.036;2022-08-14T00:18:40;15.80;99.90
15426;DHT22;7812;50.072;7.036;2022-08-14T00:21:06;15.80;99.90
15426;DHT22;7812;50.072;7.036;2022-08-14T00:23:32;15.80;99.90
15426;DHT22;7812;50.072;7.036;2022-08-14T00:25:58;15.80;99.90
15426;DHT22;7812;50.072;7.036;2022-08-14T00:28:24;15.70;99.90
15426;DHT22;7812;50.072;7.036;2022-08-14T00:30:59;15.60;99.90
15426;DHT22;7812;50.072;7.036;2022-08-14T00:33:27;15.50;99.90
15426;DHT22;7812;50.072;7.036;2022-08-14T00:35:53;15.40;99.90
15426;DHT22;7812;50.072;7.036;2022-08-14T00:38:20;15.30;99.90
15426;DHT22;7812;50.072;7.036;2022-08-14T00:40:46;15.40;99.90
15426;DHT22;7812;50.072;7.036;2022-08-14T00:43:12;15.40;99.90
15426;DHT22;7812;50.072;7.036;2022-08-14T00:45:39;15.40;99.90
15426;DHT22;7812;50.072;7.036;2022-08-14T00:48:05;15.40;99.90
15426;DHT22;7812;50.072;7.036;2022-08-14T00:50:31;15.40;99.90
15426;DHT22;7812;50.072;7.036;2022-08-14T00:52:58;15.40;99.90
15426;DHT22;7812;50.072;7.036;2022-08-14T00:55:28;15.40;99.90
15426;DHT22;7812;50.072;7.036;2022-08-14T00:57:56;15.30;99.90
15426;DHT22;7812;50.072;7.036;2022-08-14T01:00:41;15.30;99.90
15426;DHT22;7812;50.072;7.036;2022-08-14T01:03:08;15.30;99.90
15426;DHT22;7812;50.072;7.036;2022-08-14T01:05:34;15.30;99.90
15426;DHT22;7812;50.072;7.036;2022-08-14T01:08:02;15.10;99.90
15426;DHT22;7812;50.072;7.036;2022-08-14T01:10:29;15.00;99.90
15426;DHT22;7812;50.072;7.036;2022-08-14T01:13:27;14.90;99.90
15426;DHT22;7812;50.072;7.036;2022-08-14T01:15:55;14.90;99.90
15426;DHT22;7812;50.072;7.036;2022-08-14T01:18:23;14.80;99.90
15426;DHT22;7812;50.072;7.036;2022-08-14T01:21:09;14.70;99.90
15426;DHT22;7812;50.072;7.036;2022-08-14T01:23:42;14.70;99.90
15426;DHT22;7812;50.072;7.036;2022-08-14T01:26:09;14.80;99.90
15426;DHT22;7812;50.072;7.036;2022-08-14T01:28:37;14.80;99.90
15426;DHT22;7812;50.072;7.036;2022-08-14T01:33:35;14.80;99.90
15426;DHT22;7812;50.072;7.036;2022-08-14T01:36:03;14.80;99.90
15426;DHT22;7812;50.072;7.036;2022-08-14T01:38:29;14.80;99.90
15426;DHT22;7812;50.072;7.036;2022-08-14T01:41:01;14.80;99.90
15426;DHT22;7812;50.072;7.036;2022-08-14T01:43:28;14.80;99.90
15426;DHT22;7812;50.072;7.036;2022-08-14T01:46:04;14.70;99.90
15426;DHT22;7812;50.072;7.036;2022-08-14T01:48:37;14.70;99.90
15426;DHT22;7812;50.072;7.036;2022-08-14T01:51:04;14.60;99.90
15426;DHT22;7812;50.072;7.036;2022-08-14T01:53:30;14.60;99.90
15426;DHT22;7812;50.072;7.036;2022-08-14T01:55:58;14.50;99.90
15426;DHT22;7812;50.072;7.036;2022-08-14T01:58:27;14.40;99.90
15426;DHT22;7812;50.072;7.036;2022-08-14T02:00:54;14.50;99.90
15426;DHT22;7812;50.072;7.036;2022-08-14T02:03:22;14.40;99.90
15426;DHT22;7812;50.072;7.036;2022-08-14T02:05:48;14.40;99.90
15426;DHT22;7812;50.072;7.036;2022-08-14T02:08:15;14.40;99.90
15426;DHT22;7812;50.072;7.036;2022-08-14T02:10:42;14.30;99.90
15426;DHT22;7812;50.072;7.036;2022-08-14T02:13:09;14.20;99.90
15426;DHT22;7812;50.072;7.036;2022-08-14T02:15:35;14.20;99.90
15426;DHT22;7812;50.072;7.036;2022-08-14T02:18:14;14.30;99.90
15426;DHT22;7812;50.072;7.036;2022-08-14T02:20:40;14.20;99.90
15426;DHT22;7812;50.072;7.036;2022-08-14T02:23:06;14.20;99.90
15426;DHT22;7812;50.072;7.036;2022-08-14T02:25:33;14.10;99.90
15426;DHT22;7812;50.072;7.036;2022-08-14T02:27:58;14.20;99.90
15426;DHT22;7812;50.072;7.036;2022-08-14T02:30:24;14.20;99.90
15426;DHT22;7812;50.072;7.036;2022-08-14T02:32:51;14.30;99.90
15426;DHT22;7812;50.072;7.036;2022-08-14T02:35:17;14.30;99.90
15426;DHT22;7812;50.072;7.036;2022-08-14T02:37:47;14.30;99.90
15426;DHT22;7812;50.072;7.036;2022-08-14T02:40:14;14.20;99.90
15426;DHT22;7812;50.072;7.036;2022-08-14T02:42:40;14.10;99.90
15426;DHT22;7812;50.072;7.036;2022-08-14T02:45:06;14.10;99.90
15426;DHT22;7812;50.072;7.036;2022-08-14T02:47:33;13.90;99.90
15426;DHT22;7812;50.072;7.036;2022-08-14T02:50:00;13.90;99.90
15426;DHT22;7812;50.072;7.036;2022-08-14T02:52:25;14.00;99.90
15426;DHT22;7812;50.072;7.036;2022-08-14T02:54:52;13.90;99.90
15426;DHT22;7812;50.072;7.036;2022-08-14T02:57:18;13.90;99.90
15426;DHT22;7812;50.072;7.036;2022-08-14T02:59:48;13.80;99.90
15426;DHT22;7812;50.072;7.036;2022-08-14T03:02:14;13.80;99.90
15426;DHT22;7812;50.072;7.036;2022-08-14T03:04:41;13.80;99.90
15426;DHT22;7812;50.072;7.036;2022-08-14T03:07:07;13.80;99.90
15426;DHT22;7812;50.072;7.036;2022-08-14T03:09:36;13.80;99.90
15426;DHT22;7812;50.072;7.036;2022-08-14T03:12:04;13.80;99.90
15426;DHT22;7812;50.072;7.036;2022-08-14T03:14:30;13.70;99.90
15426;DHT22;7812;50.072;7.036;2022-08-14T03:17:00;13.70;99.90
15426;DHT22;7812;50.072;7.036;2022-08-14T03:19:25;13.60;99.90
15426;DHT22;7812;50.072;7.036;2022-08-14T03:21:51;13.60;99.90
15426;DHT22;7812;50.072;7.036;2022-08-14T03:24:18;13.60;99.90
15426;DHT22;7812;50.072;7.036;2022-08-14T03:26:46;13.60;99.90
15426;DHT22;7812;50.072;7.036;2022-08-14T03:29:16;13.60;99.90
15426;DHT22;7812;50.072;7.036;2022-08-14T03:31:45;13.60;99.90
15426;DHT22;7812;50.072;7.036;2022-08-14T03:34:14;13.60;99.90
15426;DHT22;7812;50.072;7.036;2022-08-14T03:36:40;13.60;99.90
15426;DHT22;7812;50.072;7.036;2022-08-14T03:39:10;13.60;99.90
15426;DHT22;7812;50.072;7.036;2022-08-14T03:41:36;13.60;99.90
15426;DHT22;7812;50.072;7.036;2022-08-14T03:44:04;13.70;99.90
15426;DHT22;7812;50.072;7.036;2022-08-14T03:46:36;13.70;99.90
15426;DHT22;7812;50.072;7.036;2022-08-14T03:49:04;13.70;99.90
15426;DHT22;7812;50.072;7.036;2022-08-14T03:51:45;13.70;99.90
15426;DHT22;7812;50.072;7.036;2022-08-14T03:54:12;13.70;99.90
15426;DHT22;7812;50.072;7.036;2022-08-14T03:56:37;13.70;99.90
15426;DHT22;7812;50.072;7.036;2022-08-14T03:59:09;13.60;99.90
15426;DHT22;7812;50.072;7.036;2022-08-14T04:01:36;13.50;99.90
15426;DHT22;7812;50.072;7.036;2022-08-14T04:04:04;13.50;99.90
15426;DHT22;7812;50.072;7.036;2022-08-14T04:06:35;13.40;99.90
15426;DHT22;7812;50.072;7.036;2022-08-14T04:09:03;13.30;99.90
15426;DHT22;7812;50.072;7.036;2022-08-14T04:11:30;13.30;99.90
15426;DHT22;7812;50.072;7.036;2022-08-14T04:13:56;13.40;99.90
15426;DHT22;7812;50.072;7.036;2022-08-14T04:16:21;13.40;99.90
15426;DHT22;7812;50.072;7.036;2022-08-14T04:18:55;13.40;99.90
15426;DHT22;7812;50.072;7.036;2022-08-14T04:21:23;13.30;99.90
15426;DHT22;7812;50.072;7.036;2022-08-14T04:23:51;13.30;99.90
15426;DHT22;7812;50.072;7.036;2022-08-14T04:26:17;13.20;99.90
15426;DHT22;7812;50.072;7.036;2022-08-14T04:28:47;13.20;99.90
15426;DHT22;7812;50.072;7.036;2022-08-14T04:31:14;13.30;99.90
15426;DHT22;7812;50.072;7.036;2022-08-14T04:33:41;13.30;99.90
15426;DHT22;7812;50.072;7.036;2022-08-14T04:36:08;13.30;99.90
15426;DHT22;7812;50.072;7.036;2022-08-14T04:38:33;13.30;99.90
15426;DHT22;7812;50.072;7.036;2022-08-14T04:41:18;13.30;99.90
15426;DHT22;7812;50.072;7.036;2022-08-14T04:44:04;13.40;99.90
15426;DHT22;7812;50.072;7.036;2022-08-14T04:46:30;13.40;99.90
15426;DHT22;7812;50.072;7.036;2022-08-14T04:48:58;13.40;99.90
15426;DHT22;7812;50.072;7.036;2022-08-14T04:51:23;13.40;99.90
15426;DHT22;7812;50.072;7.036;2022-08-14T04:53:53;13.40;99.90
15426;DHT22;7812;50.072;7.036;2022-08-14T04:56:22;13.40;99.90
15426;DHT22;7812;50.072;7.036;2022-08-14T04:58:50;13.30;99.90
15426;DHT22;7812;50.072;7.036;2022-08-14T05:01:16;13.30;99.90
15426;DHT22;7812;50.072;7.036;2022-08-14T05:03:43;13.50;99.90
15426;DHT22;7812;50.072;7.036;2022-08-14T05:06:10;13.60;99.90
15426;DHT22;7812;50.072;7.036;2022-08-14T05:08:37;13.60;99.90
15426;DHT22;7812;50.072;7.036;2022-08-14T05:11:05;13.60;99.90
15426;DHT22;7812;50.072;7.036;2022-08-14T05:13:32;13.70;99.90
15426;DHT22;7812;50.072;7.036;2022-08-14T05:16:00;13.80;99.90
15426;DHT22;7812;50.072;7.036;2022-08-14T05:18:28;13.80;99.90
15426;DHT22;7812;50.072;7.036;2022-08-14T05:20:57;13.80;99.90
15426;DHT22;7812;50.072;7.036;2022-08-14T05:23:25;13.70;99.90
15426;DHT22;7812;50.072;7.036;2022-08-14T05:25:53;13.70;99.90
15426;DHT22;7812;50.072;7.036;2022-08-14T05:28:23;13.80;99.90
15426;DHT22;7812;50.072;7.036;2022-08-14T05:30:54;13.90;99.90
15426;DHT22;7812;50.072;7.036;2022-08-14T05:33:21;14.00;99.90
15426;DHT22;7812;50.072;7.036;2022-08-14T05:35:50;14.20;99.90
15426;DHT22;7812;50.072;7.036;2022-08-14T05:38:19;14.40;99.90
15426;DHT22;7812;50.072;7.036;2022-08-14T05:40:48;14.90;99.90
15426;DHT22;7812;50.072;7.036;2022-08-14T05:43:14;15.50;99.90
15426;DHT22;7812;50.072;7.036;2022-08-14T05:45:40;16.10;99.90
15426;DHT22;7812;50.072;7.036;2022-08-14T05:48:11;16.50;99.90
15426;DHT22;7812;50.072;7.036;2022-08-14T05:50:37;16.70;99.90
15426;DHT22;7812;50.072;7.036;2022-08-14T05:53:04;17.10;99.90
15426;DHT22;7812;50.072;7.036;2022-08-14T05:55:35;17.50;99.90
15426;DHT22;7812;50.072;7.036;2022-08-14T05:58:06;18.20;99.90
15426;DHT22;7812;50.072;7.036;2022-08-14T06:00:41;18.90;99.90
15426;DHT22;7812;50.072;7.036;2022-08-14T06:03:11;19.30;99.90
15426;DHT22;7812;50.072;7.036;2022-08-14T06:05:39;19.40;99.90
15426;DHT22;7812;50.072;7.036;2022-08-14T06:08:17;19.90;99.90
15426;DHT22;7812;50.072;7.036;2022-08-14T06:10:43;20.50;99.90
15426;DHT22;7812;50.072;7.036;2022-08-14T06:13:10;20.80;99.90
15426;DHT22;7812;50.072;7.036;2022-08-14T06:15:36;21.00;99.90
15426;DHT22;7812;50.072;7.036;2022-08-14T06:18:02;21.10;99.90
15426;DHT22;7812;50.072;7.036;2022-08-14T06:20:28;21.00;99.90
15426;DHT22;7812;50.072;7.036;2022-08-14T06:22:55;21.50;99.90
15426;DHT22;7812;50.072;7.036;2022-08-14T06:25:21;21.50;99.90
15426;DHT22;7812;50.072;7.036;2022-08-14T06:27:48;22.20;99.90
15426;DHT22;7812;50.072;7.036;2022-08-14T06:30:16;22.60;99.90
15426;DHT22;7812;50.072;7.036;2022-08-14T06:32:43;23.20;99.90
15426;DHT22;7812;50.072;7.036;2022-08-14T06:35:10;23.10;99.90
15426;DHT22;7812;50.072;7.036;2022-08-14T06:37:46;22.80;99.90
15426;DHT22;7812;50.072;7.036;2022-08-14T06:40:18;23.00;99.90
15426;DHT22;7812;50.072;7.036;2022-08-14T06:42:45;23.30;99.90
15426;DHT22;7812;50.072;7.036;2022-08-14T06:45:11;23.70;99.90
15426;DHT22;7812;50.072;7.036;2022-08-14T06:47:38;24.30;99.90
15426;DHT22;7812;50.072;7.036;2022-08-14T06:50:06;25.00;99.90
15426;DHT22;7812;50.072;7.036;2022-08-14T06:52:33;25.20;99.90
15426;DHT22;7812;50.072;7.036;2022-08-14T06:54:59;25.50;99.90
15426;DHT22;7812;50.072;7.036;2022-08-14T06:57:32;25.80;99.90
15426;DHT22;7812;50.072;7.036;2022-08-14T06:59:59;26.00;99.90
15426;DHT22;7812;50.072;7.036;2022-08-14T07:02:25;26.10;99.90
15426;DHT22;7812;50.072;7.036;2022-08-14T07:05:09;26.10;99.90
15426;DHT22;7812;50.072;7.036;2022-08-14T07:07:54;26.10;99.90
15426;DHT22;7812;50.072;7.036;2022-08-14T07:10:19;26.60;99.90
15426;DHT22;7812;50.072;7.036;2022-08-14T07:12:48;26.60;99.90
15426;DHT22;7812;50.072;7.036;2022-08-14T07:15:14;26.70;99.90
15426;DHT22;7812;50.072;7.036;2022-08-14T07:17:48;27.30;99.90
15426;DHT22;7812;50.072;7.036;2022-08-14T07:20:14;27.80;99.90
15426;DHT22;7812;50.072;7.036;2022-08-14T07:22:42;28.20;99.90
15426;DHT22;7812;50.072;7.036;2022-08-14T07:25:09;28.40;99.90
15426;DHT22;7812;50.072;7.036;2022-08-14T07:27:37;28.90;99.90
15426;DHT22;7812;50.072;7.036;2022-08-14T07:30:04;29.30;99.90
15426;DHT22;7812;50.072;7.036;2022-08-14T07:32:30;29.90;99.90
15426;DHT22;7812;50.072;7.036;2022-08-14T07:34:55;30.70;99.90
15426;DHT22;7812;50.072;7.036;2022-08-14T07:37:21;31.00;99.90
15426;DHT22;7812;50.072;7.036;2022-08-14T07:39:47;32.10;99.90
15426;DHT22;7812;50.072;7.036;2022-08-14T07:42:14;31.40;99.90
15426;DHT22;7812;50.072;7.036;2022-08-14T07:44:40;32.40;99.90
15426;DHT22;7812;50.072;7.036;2022-08-14T07:47:05;34.00;98.60
15426;DHT22;7812;50.072;7.036;2022-08-14T07:49:59;35.30;95.80
15426;DHT22;7812;50.072;7.036;2022-08-14T07:52:26;34.90;94.40
15426;DHT22;7812;50.072;7.036;2022-08-14T07:54:53;34.50;95.30
15426;DHT22;7812;50.072;7.036;2022-08-14T07:57:19;33.60;95.20
15426;DHT22;7812;50.072;7.036;2022-08-14T07:59:45;33.40;95.80
15426;DHT22;7812;50.072;7.036;2022-08-14T08:02:15;34.50;95.90
15426;DHT22;7812;50.072;7.036;2022-08-14T08:04:44;34.00;95.30
15426;DHT22;7812;50.072;7.036;2022-08-14T08:07:11;33.40;95.30
15426;DHT22;7812;50.072;7.036;2022-08-14T08:09:45;32.50;96.40
15426;DHT22;7812;50.072;7.036;2022-08-14T08:12:14;33.00;96.50
15426;DHT22;7812;50.072;7.036;2022-08-14T08:14:41;33.80;95.70
15426;DHT22;7812;50.072;7.036;2022-08-14T08:17:09;35.30;94.80
15426;DHT22;7812;50.072;7.036;2022-08-14T08:19:35;35.20;93.60
15426;DHT22;7812;50.072;7.036;2022-08-14T08:22:03;34.70;93.50
15426;DHT22;7812;50.072;7.036;2022-08-14T08:24:29;34.20;94.50
15426;DHT22;7812;50.072;7.036;2022-08-14T08:26:55;35.50;93.30
15426;DHT22;7812;50.072;7.036;2022-08-14T08:29:22;34.90;92.60
15426;DHT22;7812;50.072;7.036;2022-08-14T08:31:50;35.90;92.60
15426;DHT22;7812;50.072;7.036;2022-08-14T08:34:17;34.90;92.80
15426;DHT22;7812;50.072;7.036;2022-08-14T08:36:43;36.50;91.80
15426;DHT22;7812;50.072;7.036;2022-08-14T08:39:11;37.00;90.90
15426;DHT22;7812;50.072;7.036;2022-08-14T08:41:44;36.90;90.20
15426;DHT22;7812;50.072;7.036;2022-08-14T08:44:10;36.60;89.50
15426;DHT22;7812;50.072;7.036;2022-08-14T08:46:36;36.70;90.00
15426;DHT22;7812;50.072;7.036;2022-08-14T08:49:05;34.70;89.80
15426;DHT22;7812;50.072;7.036;2022-08-14T08:51:36;35.20;90.10
15426;DHT22;7812;50.072;7.036;2022-08-14T08:56:49;35.20;89.90
15426;DHT22;7812;50.072;7.036;2022-08-14T08:59:16;34.20;90.20
15426;DHT22;7812;50.072;7.036;2022-08-14T09:01:47;34.90;90.20
15426;DHT22;7812;50.072;7.036;2022-08-14T09:04:13;35.80;88.60
15426;DHT22;7812;50.072;7.036;2022-08-14T09:06:49;36.10;87.90
15426;DHT22;7812;50.072;7.036;2022-08-14T09:09:26;36.40;87.90
15426;DHT22;7812;50.072;7.036;2022-08-14T09:11:54;36.70;85.00
15426;DHT22;7812;50.072;7.036;2022-08-14T09:14:30;35.20;85.40
15426;DHT22;7812;50.072;7.036;2022-08-14T09:16:57;35.20;86.00
15426;DHT22;7812;50.072;7.036;2022-08-14T09:19:24;35.20;85.60
15426;DHT22;7812;50.072;7.036;2022-08-14T09:21:50;35.40;85.10
15426;DHT22;7812;50.072;7.036;2022-08-14T09:24:18;35.90;84.70
15426;DHT22;7812;50.072;7.036;2022-08-14T09:26:44;35.80;83.50
15426;DHT22;7812;50.072;7.036;2022-08-14T09:29:11;36.30;81.40
15426;DHT22;7812;50.072;7.036;2022-08-14T09:31:39;36.90;82.00
15426;DHT22;7812;50.072;7.036;2022-08-14T09:45:45;37.10;71.20
15426;DHT22;7812;50.072;7.036;2022-08-14T09:48:20;35.90;75.10
15426;DHT22;7812;50.072;7.036;2022-08-14T09:50:51;36.00;74.80
15426;DHT22;7812;50.072;7.036;2022-08-14T09:53:38;36.40;74.40
15426;DHT22;7812;50.072;7.036;2022-08-14T09:56:06;36.80;74.30
15426;DHT22;7812;50.072;7.036;2022-08-14T09:59:08;38.60;74.00
15426;DHT22;7812;50.072;7.036;2022-08-14T10:01:37;37.30;70.90
15426;DHT22;7812;50.072;7.036;2022-08-14T10:04:16;37.50;71.10
15426;DHT22;7812;50.072;7.036;2022-08-14T10:06:44;37.40;70.90
15426;DHT22;7812;50.072;7.036;2022-08-14T10:09:10;38.20;71.80
15426;DHT22;7812;50.072;7.036;2022-08-14T10:11:37;39.70;70.50
15426;DHT22;7812;50.072;7.036;2022-08-14T10:14:14;40.60;67.70
15426;DHT22;7812;50.072;7.036;2022-08-14T10:16:43;39.80;65.80
15426;DHT22;7812;50.072;7.036;2022-08-14T10:19:12;40.60;65.80
15426;DHT22;7812;50.072;7.036;2022-08-14T10:21:40;39.30;66.00
15426;DHT22;7812;50.072;7.036;2022-08-14T10:24:10;39.00;67.20
15426;DHT22;7812;50.072;7.036;2022-08-14T10:26:56;38.80;65.40
15426;DHT22;7812;50.072;7.036;2022-08-14T10:29:34;39.50;65.70
15426;DHT22;7812;50.072;7.036;2022-08-14T10:32:02;39.30;63.90
15426;DHT22;7812;50.072;7.036;2022-08-14T10:34:33;38.10;65.00
15426;DHT22;7812;50.072;7.036;2022-08-14T10:37:06;36.20;64.70
15426;DHT22;7812;50.072;7.036;2022-08-14T10:39:34;36.10;66.90
15426;DHT22;7812;50.072;7.036;2022-08-14T10:42:05;36.60;64.30
15426;DHT22;7812;50.072;7.036;2022-08-14T10:44:36;35.20;65.90
15426;DHT22;7812;50.072;7.036;2022-08-14T10:47:04;35.10;65.80
15426;DHT22;7812;50.072;7.036;2022-08-14T10:49:36;36.30;65.90
15426;DHT22;7812;50.072;7.036;2022-08-14T10:52:05;38.90;64.70
15426;DHT22;7812;50.072;7.036;2022-08-14T10:54:42;40.60;63.90
15426;DHT22;7812;50.072;7.036;2022-08-14T10:57:16;42.00;61.00
15426;DHT22;7812;50.072;7.036;2022-08-14T10:59:47;40.80;60.90
15426;DHT22;7812;50.072;7.036;2022-08-14T11:05:11;36.30;61.90
15426;DHT22;7812;50.072;7.036;2022-08-14T11:07:40;36.60;62.40
15426;DHT22;7812;50.072;7.036;2022-08-14T11:10:09;37.10;62.50
15426;DHT22;7812;50.072;7.036;2022-08-14T11:12:41;37.00;62.20
15426;DHT22;7812;50.072;7.036;2022-08-14T11:15:16;37.60;62.50
15426;DHT22;7812;50.072;7.036;2022-08-14T11:17:43;38.50;61.10
15426;DHT22;7812;50.072;7.036;2022-08-14T11:20:12;36.80;60.50
15426;DHT22;7812;50.072;7.036;2022-08-14T11:22:39;36.20;61.30
15426;DHT22;7812;50.072;7.036;2022-08-14T11:25:13;37.70;61.70
15426;DHT22;7812;50.072;7.036;2022-08-14T11:27:44;39.80;59.90
15426;DHT22;7812;50.072;7.036;2022-08-14T11:30:15;39.60;59.60
15426;DHT22;7812;50.072;7.036;2022-08-14T11:32:47;38.90;59.70
15426;DHT22;7812;50.072;7.036;2022-08-14T11:35:17;36.50;60.00
15426;DHT22;7812;50.072;7.036;2022-08-14T11:37:56;37.70;60.10
15426;DHT22;7812;50.072;7.036;2022-08-14T11:40:26;36.90;59.50
15426;DHT22;7812;50.072;7.036;2022-08-14T11:42:53;38.20;60.40
15426;DHT22;7812;50.072;7.036;2022-08-14T11:45:26;40.20;59.60
15426;DHT22;7812;50.072;7.036;2022-08-14T11:47:53;41.10;58.60
15426;DHT22;7812;50.072;7.036;2022-08-14T11:50:33;39.50;58.50
15426;DHT22;7812;50.072;7.036;2022-08-14T11:52:59;39.00;59.10
15426;DHT22;7812;50.072;7.036;2022-08-14T11:55:33;40.20;58.40
15426;DHT22;7812;50.072;7.036;2022-08-14T11:58:06;40.00;58.30
15426;DHT22;7812;50.072;7.036;2022-08-14T12:00:44;39.20;58.40
15426;DHT22;7812;50.072;7.036;2022-08-14T12:03:10;38.90;58.10
15426;DHT22;7812;50.072;7.036;2022-08-14T12:05:38;39.50;58.00
15426;DHT22;7812;50.072;7.036;2022-08-14T12:08:07;39.70;57.20
15426;DHT22;7812;50.072;7.036;2022-08-14T12:10:34;38.30;56.80
15426;DHT22;7812;50.072;7.036;2022-08-14T12:13:19;39.60;57.30
15426;DHT22;7812;50.072;7.036;2022-08-14T12:15:56;39.70;57.80
15426;DHT22;7812;50.072;7.036;2022-08-14T12:18:33;39.10;57.80
15426;DHT22;7812;50.072;7.036;2022-08-14T12:21:20;40.20;57.70
15426;DHT22;7812;50.072;7.036;2022-08-14T12:23:48;41.40;57.20
15426;DHT22;7812;50.072;7.036;2022-08-14T12:26:24;40.70;56.90
15426;DHT22;7812;50.072;7.036;2022-08-14T12:28:50;40.60;56.80
15426;DHT22;7812;50.072;7.036;2022-08-14T12:31:18;38.50;57.60
15426;DHT22;7812;50.072;7.036;2022-08-14T12:34:02;36.30;58.30
15426;DHT22;7812;50.072;7.036;2022-08-14T12:36:29;37.10;58.50
15426;DHT22;7812;50.072;7.036;2022-08-14T12:38:57;37.40;58.30
15426;DHT22;7812;50.072;7.036;2022-08-14T12:41:25;36.50;57.80
15426;DHT22;7812;50.072;7.036;2022-08-14T12:43:59;37.30;58.20
15426;DHT22;7812;50.072;7.036;2022-08-14T12:48:53;37.30;57.20
15426;DHT22;7812;50.072;7.036;2022-08-14T12:51:21;36.30;57.90
15426;DHT22;7812;50.072;7.036;2022-08-14T12:53:47;36.10;58.30
15426;DHT22;7812;50.072;7.036;2022-08-14T12:56:19;36.50;57.80
15426;DHT22;7812;50.072;7.036;2022-08-14T12:58:55;36.30;57.50
15426;DHT22;7812;50.072;7.036;2022-08-14T13:01:21;36.00;57.80
15426;DHT22;7812;50.072;7.036;2022-08-14T13:03:48;35.10;58.70
15426;DHT22;7812;50.072;7.036;2022-08-14T13:06:14;34.30;59.30
15426;DHT22;7812;50.072;7.036;2022-08-14T13:08:40;34.80;59.80
15426;DHT22;7812;50.072;7.036;2022-08-14T13:11:12;34.00;59.10
15426;DHT22;7812;50.072;7.036;2022-08-14T13:13:41;32.90;59.50
15426;DHT22;7812;50.072;7.036;2022-08-14T13:16:10;32.70;60.00
15426;DHT22;7812;50.072;7.036;2022-08-14T13:18:40;32.70;59.90
15426;DHT22;7812;50.072;7.036;2022-08-14T13:21:09;32.40;59.70
15426;DHT22;7812;50.072;7.036;2022-08-14T13:23:36;32.40;61.10
15426;DHT22;7812;50.072;7.036;2022-08-14T13:26:03;32.40;61.00
15426;DHT22;7812;50.072;7.036;2022-08-14T13:28:30;32.20;61.80
15426;DHT22;7812;50.072;7.036;2022-08-14T13:30:59;31.80;61.40
15426;DHT22;7812;50.072;7.036;2022-08-14T13:33:28;31.80;62.00
15426;DHT22;7812;50.072;7.036;2022-08-14T13:35:55;32.10;62.30
15426;DHT22;7812;50.072;7.036;2022-08-14T13:38:21;32.10;62.20
15426;DHT22;7812;50.072;7.036;2022-08-14T13:40:48;32.30;62.80
15426;DHT22;7812;50.072;7.036;2022-08-14T13:43:19;32.60;62.30
15426;DHT22;7812;50.072;7.036;2022-08-14T13:45:44;32.30;62.40
15426;DHT22;7812;50.072;7.036;2022-08-14T13:48:11;32.30;62.70
15426;DHT22;7812;50.072;7.036;2022-08-14T13:50:38;32.10;62.80
15426;DHT22;7812;50.072;7.036;2022-08-14T13:53:06;32.00;63.20
15426;DHT22;7812;50.072;7.036;2022-08-14T13:55:34;31.90;63.20
15426;DHT22;7812;50.072;7.036;2022-08-14T13:58:01;31.90;63.50
15426;DHT22;7812;50.072;7.036;2022-08-14T14:00:27;31.70;63.30
15426;DHT22;7812;50.072;7.036;2022-08-14T14:02:57;32.40;63.30
15426;DHT22;7812;50.072;7.036;2022-08-14T14:05:24;33.10;63.00
15426;DHT22;7812;50.072;7.036;2022-08-14T14:07:52;33.20;62.50
15426;DHT22;7812;50.072;7.036;2022-08-14T14:10:20;33.40;63.40
15426;DHT22;7812;50.072;7.036;2022-08-14T14:12:47;32.60;63.00
15426;DHT22;7812;50.072;7.036;2022-08-14T14:15:16;32.20;63.70
15426;DHT22;7812;50.072;7.036;2022-08-14T14:17:43;32.30;63.40
15426;DHT22;7812;50.072;7.036;2022-08-14T14:20:13;31.90;63.40
15426;DHT22;7812;50.072;7.036;2022-08-14T14:22:46;31.80;63.40
15426;DHT22;7812;50.072;7.036;2022-08-14T14:25:16;32.30;63.50
15426;DHT22;7812;50.072;7.036;2022-08-14T14:27:44;32.30;63.20
15426;DHT22;7812;50.072;7.036;2022-08-14T14:30:12;31.90;63.60
15426;DHT22;7812;50.072;7.036;2022-08-14T14:32:40;32.00;63.70
15426;DHT22;7812;50.072;7.036;2022-08-14T14:35:12;32.00;63.50
15426;DHT22;7812;50.072;7.036;2022-08-14T14:37:44;32.00;63.00
15426;DHT22;7812;50.072;7.036;2022-08-14T14:40:12;31.40;63.10
15426;DHT22;7812;50.072;7.036;2022-08-14T14:42:50;31.40;63.60
15426;DHT22;7812;50.072;7.036;2022-08-14T14:45:19;31.40;63.60
15426;DHT22;7812;50.072;7.036;2022-08-14T14:47:48;31.20;63.80
15426;DHT22;7812;50.072;7.036;2022-08-14T14:50:17;31.00;63.60
15426;DHT22;7812;50.072;7.036;2022-08-14T14:52:45;31.00;64.00
15426;DHT22;7812;50.072;7.036;2022-08-14T14:55:12;31.00;63.80
15426;DHT22;7812;50.072;7.036;2022-08-14T14:57:38;31.30;64.40
15426;DHT22;7812;50.072;7.036;2022-08-14T15:00:07;31.70;63.10
15426;DHT22;7812;50.072;7.036;2022-08-14T15:02:36;31.50;63.30
15426;DHT22;7812;50.072;7.036;2022-08-14T15:05:05;31.30;63.20
15426;DHT22;7812;50.072;7.036;2022-08-14T15:07:33;31.20;62.70
15426;DHT22;7812;50.072;7.036;2022-08-14T15:09:59;31.10;63.10
15426;DHT22;7812;50.072;7.036;2022-08-14T15:12:28;31.00;64.00
15426;DHT22;7812;50.072;7.036;2022-08-14T15:14:54;31.10;63.00
15426;DHT22;7812;50.072;7.036;2022-08-14T15:17:20;31.30;62.90
15426;DHT22;7812;50.072;7.036;2022-08-14T15:19:48;31.20;63.00
15426;DHT22;7812;50.072;7.036;2022-08-14T15:22:14;31.40;63.70
15426;DHT22;7812;50.072;7.036;2022-08-14T15:24:40;31.10;62.70
15426;DHT22;7812;50.072;7.036;2022-08-14T15:27:09;31.20;62.80
15426;DHT22;7812;50.072;7.036;2022-08-14T15:29:35;31.10;62.40
15426;DHT22;7812;50.072;7.036;2022-08-14T15:32:04;31.20;62.50
15426;DHT22;7812;50.072;7.036;2022-08-14T15:34:30;31.20;62.40
15426;DHT22;7812;50.072;7.036;2022-08-14T15:36:56;31.20;62.30
15426;DHT22;7812;50.072;7.036;2022-08-14T15:39:22;31.30;62.30
15426;DHT22;7812;50.072;7.036;2022-08-14T15:41:48;31.50;62.00
15426;DHT22;7812;50.072;7.036;2022-08-14T15:44:14;31.40;62.30
15426;DHT22;7812;50.072;7.036;2022-08-14T15:46:41;31.50;62.40
15426;DHT22;7812;50.072;7.036;2022-08-14T15:49:07;31.70;62.50
15426;DHT22;7812;50.072;7.036;2022-08-14T15:51:33;31.60;62.30
15426;DHT22;7812;50.072;7.036;2022-08-14T15:54:02;31.90;63.10
15426;DHT22;7812;50.072;7.036;2022-08-14T15:56:29;31.80;62.00
15426;DHT22;7812;50.072;7.036;2022-08-14T15:58:54;31.60;62.70
15426;DHT22;7812;50.072;7.036;2022-08-14T16:01:21;31.80;63.10
15426;DHT22;7812;50.072;7.036;2022-08-14T16:03:55;32.00;63.10
15426;DHT22;7812;50.072;7.036;2022-08-14T16:06:25;32.30;63.10
15426;DHT22;7812;50.072;7.036;2022-08-14T16:08:56;32.30;62.90
15426;DHT22;7812;50.072;7.036;2022-08-14T16:11:23;32.10;61.40
15426;DHT22;7812;50.072;7.036;2022-08-14T16:13:50;31.70;61.90
15426;DHT22;7812;50.072;7.036;2022-08-14T16:16:19;31.60;61.80
15426;DHT22;7812;50.072;7.036;2022-08-14T16:18:46;31.50;62.20